createdAt,value
2018-06-05T00:02:26.049Z,100548.13
2018-06-05T00:04:54.373Z,100545.65
2018-06-05T00:07:22.694Z,100543.30
2018-06-05T00:09:51.960Z,100548.39
2018-06-05T00:12:20.287Z,100542.92
2018-06-05T00:14:48.781Z,100548.13
2018-06-05T00:17:18.164Z,100544.80
2018-06-05T00:19:47.384Z,100547.25
2018-06-05T00:22:16.801Z,100542.78
2018-06-05T00:24:45.989Z,100544.41
2018-06-05T00:27:15.277Z,100544.58
2018-06-05T00:29:44.649Z,100540.43
2018-06-05T00:32:12.959Z,100548.65
2018-06-05T00:34:41.368Z,100547.33
2018-06-05T00:37:10.736Z,100547.01
2018-06-05T00:39:40.072Z,100547.28
2018-06-05T00:42:08.393Z,100550.58
2018-06-05T00:44:37.747Z,100551.70
2018-06-05T00:47:06.985Z,100555.16
2018-06-05T00:49:36.244Z,100550.31
2018-06-05T00:52:06.930Z,100546.52
2018-06-05T00:54:36.189Z,100546.14
2018-06-05T00:57:04.648Z,100543.50
2018-06-05T00:59:33.088Z,100542.83
2018-06-05T01:02:02.353Z,100542.34
2018-06-05T01:04:31.725Z,100535.87
2018-06-05T01:07:00.091Z,100533.70
2018-06-05T01:09:29.286Z,100537.17
2018-06-05T01:11:58.636Z,100539.22
2018-06-05T01:14:27.976Z,100535.87
2018-06-05T01:16:56.336Z,100532.92
2018-06-05T01:19:25.584Z,100529.25
2018-06-05T01:21:53.896Z,100523.97
2018-06-05T01:24:22.204Z,100530.38
2018-06-05T01:26:50.520Z,100527.91
2018-06-05T01:29:18.890Z,100521.58
2018-06-05T01:31:48.250Z,100521.20
2018-06-05T01:34:16.608Z,100518.56
2018-06-05T01:36:44.909Z,100514.87
2018-06-05T01:39:14.288Z,100520.82
2018-06-05T01:41:42.645Z,100523.78
2018-06-05T01:44:10.988Z,100526.04
2018-06-05T01:46:39.353Z,100510.56
2018-06-05T01:49:07.684Z,100518.06
2018-06-05T01:51:36.049Z,100518.17
2018-06-05T01:54:04.433Z,100505.42
2018-06-05T01:56:32.944Z,100493.59
2018-06-05T01:59:01.273Z,100487.61
2018-06-05T02:01:29.773Z,100493.14
2018-06-05T02:03:58.112Z,100489.61
2018-06-05T02:06:26.569Z,100488.03
2018-06-05T02:08:55.000Z,100496.91
2018-06-05T02:11:23.408Z,100493.11
2018-06-05T02:13:51.821Z,100489.31
2018-06-05T02:16:20.168Z,100485.98
2018-06-05T02:18:48.548Z,100482.83
2018-06-05T02:21:16.910Z,100482.83
2018-06-05T02:23:45.233Z,100487.03
2018-06-05T02:26:13.616Z,100488.64
2018-06-05T02:28:41.949Z,100486.61
2018-06-05T02:31:10.393Z,100483.66
2018-06-05T02:33:38.736Z,100487.54
2018-06-05T02:36:07.109Z,100483.71
2018-06-05T02:38:35.452Z,100490.42
2018-06-05T02:41:03.778Z,100495.34
2018-06-05T02:43:32.114Z,100491.27
2018-06-05T02:46:00.480Z,100496.89
2018-06-05T02:48:28.898Z,100492.58
2018-06-05T02:50:57.326Z,100494.02
2018-06-05T02:53:25.669Z,100503.77
2018-06-05T02:55:54.004Z,100507.52
2018-06-05T02:58:22.336Z,100504.24
2018-06-05T03:00:50.670Z,100503.41
2018-06-05T03:03:19.054Z,100506.20
2018-06-05T03:05:47.444Z,100511.19
2018-06-05T03:08:15.930Z,100512.50
2018-06-05T03:10:44.255Z,100506.59
2018-06-05T03:13:12.621Z,100510.06
2018-06-05T03:15:40.968Z,100514.50
2018-06-05T03:18:09.299Z,100510.19
2018-06-05T03:20:37.724Z,100510.11
2018-06-05T03:23:06.189Z,100509.81
2018-06-05T03:25:34.587Z,100513.06
2018-06-05T03:28:02.925Z,100515.66
2018-06-05T03:30:31.397Z,100520.09
2018-06-05T03:32:59.733Z,100518.55
2018-06-05T03:35:28.157Z,100519.30
2018-06-05T03:37:56.492Z,100516.78
2018-06-05T03:40:24.968Z,100522.02
2018-06-05T03:42:53.305Z,100519.81
2018-06-05T03:45:21.731Z,100516.89
2018-06-05T03:47:50.069Z,100522.69
2018-06-05T03:50:18.396Z,100517.12
2018-06-05T03:52:46.725Z,100522.02
2018-06-05T03:55:15.149Z,100518.84
2018-06-05T03:57:43.476Z,100518.62
2018-06-05T04:00:11.817Z,100515.23
2018-06-05T04:02:40.285Z,100515.14
2018-06-05T04:05:08.646Z,100519.34
2018-06-05T04:07:37.080Z,100518.23
2018-06-05T04:10:05.500Z,100527.93
2018-06-05T04:12:33.872Z,100521.74
2018-06-05T04:15:02.292Z,100528.66
2018-06-05T04:17:30.751Z,100533.50
2018-06-05T04:19:59.080Z,100531.39
2018-06-05T04:22:27.426Z,100535.45
2018-06-05T04:24:55.756Z,100527.41
2018-06-05T04:27:24.169Z,100532.88
2018-06-05T04:29:52.817Z,100531.50
2018-06-05T04:32:21.189Z,100539.26
2018-06-05T04:34:49.553Z,100540.96
2018-06-05T04:37:17.917Z,100537.38
2018-06-05T04:39:46.289Z,100542.02
2018-06-05T04:42:14.681Z,100536.42
2018-06-05T04:44:43.012Z,100545.09
2018-06-05T04:47:11.339Z,100549.31
2018-06-05T04:49:39.681Z,100545.47
2018-06-05T04:52:08.011Z,100543.26
2018-06-05T04:54:36.345Z,100541.77
2018-06-05T04:57:04.677Z,100545.56
2018-06-05T04:59:33.021Z,100547.58
2018-06-05T05:02:01.408Z,100544.59
2018-06-05T05:04:29.736Z,100553.32
2018-06-05T05:06:58.070Z,100549.22
2018-06-05T05:09:26.440Z,100557.88
2018-06-05T05:11:54.765Z,100552.92
2018-06-05T05:14:23.224Z,100561.04
2018-06-05T05:16:51.566Z,100562.22
2018-06-05T05:19:19.999Z,100560.22
2018-06-05T05:21:48.464Z,100557.91
2018-06-05T05:24:16.803Z,100567.48
2018-06-05T05:26:45.179Z,100566.16
2018-06-05T05:29:13.579Z,100576.43
2018-06-05T05:31:41.910Z,100579.25
2018-06-05T05:34:10.233Z,100580.08
2018-06-05T05:36:38.570Z,100591.31
2018-06-05T05:39:07.597Z,100594.62
2018-06-05T05:41:35.997Z,100588.34
2018-06-05T05:44:04.336Z,100594.62
2018-06-05T05:46:32.665Z,100588.31
2018-06-05T05:49:01.010Z,100598.91
2018-06-05T05:51:29.332Z,100597.85
2018-06-05T05:53:57.652Z,100593.27
2018-06-05T05:56:26.029Z,100602.03
2018-06-05T05:58:54.392Z,100606.09
2018-06-05T06:01:22.732Z,100609.23
2018-06-05T06:03:51.238Z,100609.41
2018-06-05T06:06:19.567Z,100615.45
2018-06-05T06:08:47.896Z,100602.04
2018-06-05T06:11:16.657Z,100617.36
2018-06-05T06:13:44.982Z,100619.73
2018-06-05T06:16:13.324Z,100615.13
2018-06-05T06:18:41.707Z,100620.42
2018-06-05T06:21:10.050Z,100622.72
2018-06-05T06:23:38.375Z,100625.45
2018-06-05T06:26:06.743Z,100629.65
2018-06-05T06:28:35.249Z,100625.20
2018-06-05T06:31:03.581Z,100629.69
2018-06-05T06:33:32.946Z,100625.09
2018-06-05T06:36:01.357Z,100628.38
2018-06-05T06:38:29.788Z,100619.97
2018-06-05T06:40:58.097Z,100639.63
2018-06-05T06:43:26.445Z,100638.47
2018-06-05T06:45:54.852Z,100636.83
2018-06-05T06:48:23.205Z,100632.38
2018-06-05T06:50:51.580Z,100632.69
2018-06-05T06:53:19.917Z,100638.82
2018-06-05T06:55:48.249Z,100635.16
2018-06-05T06:58:16.620Z,100643.98
2018-06-05T07:00:44.947Z,100641.81
2018-06-05T07:03:13.274Z,100645.93
2018-06-05T07:05:41.587Z,100638.64
2018-06-05T07:08:09.913Z,100642.97
2018-06-05T07:10:38.240Z,100643.97
2018-06-05T07:13:06.571Z,100647.60
2018-06-05T07:15:34.941Z,100643.97
2018-06-05T07:18:03.264Z,100645.61
2018-06-05T07:20:31.634Z,100650.91
2018-06-05T07:22:59.950Z,100651.77
2018-06-05T07:25:28.333Z,100659.05
2018-06-05T07:27:56.661Z,100659.58
2018-06-05T07:30:25.010Z,100662.37
2018-06-05T07:32:53.347Z,100662.55
2018-06-05T07:35:21.677Z,100666.86
2018-06-05T07:37:50.004Z,100665.86
2018-06-05T07:40:18.390Z,100664.22
2018-06-05T07:42:46.757Z,100668.51
2018-06-05T07:45:15.226Z,100670.66
2018-06-05T07:47:43.606Z,100674.81
2018-06-05T07:50:12.024Z,100670.67
2018-06-05T07:52:40.388Z,100669.34
2018-06-05T07:55:08.740Z,100674.50
2018-06-05T07:57:37.232Z,100672.52
2018-06-05T08:00:05.637Z,100674.33
2018-06-05T08:02:34.041Z,100682.76
2018-06-05T08:05:02.489Z,100673.81
2018-06-05T08:07:30.853Z,100673.16
2018-06-05T08:09:59.187Z,100686.28
2018-06-05T08:12:27.562Z,100680.13
2018-06-05T08:14:55.880Z,100675.16
2018-06-05T08:17:24.288Z,100686.94
2018-06-05T08:19:52.625Z,100682.45
2018-06-05T08:22:20.953Z,100689.05
2018-06-05T08:24:49.337Z,100682.57
2018-06-05T08:27:17.708Z,100687.05
2018-06-05T08:29:46.086Z,100681.98
2018-06-05T08:32:16.088Z,100688.45
2018-06-05T08:34:44.460Z,100690.55
2018-06-05T08:37:12.785Z,100692.75
2018-06-05T08:39:41.153Z,100686.83
2018-06-05T08:42:09.473Z,100691.92
2018-06-05T08:44:38.696Z,100694.12
2018-06-05T08:47:07.061Z,100699.22
2018-06-05T08:49:36.269Z,100704.05
2018-06-05T08:52:04.649Z,100700.16
2018-06-05T08:54:32.962Z,100702.26
2018-06-05T08:57:01.282Z,100700.14
2018-06-05T08:59:29.592Z,100700.57
2018-06-05T09:01:58.024Z,100698.72
2018-06-05T09:04:26.423Z,100701.30
2018-06-05T09:06:54.744Z,100706.92
2018-06-05T09:09:23.068Z,100708.70
2018-06-05T09:11:51.427Z,100707.22
2018-06-05T09:14:19.754Z,100699.91
2018-06-05T09:16:48.078Z,100710.28
2018-06-05T09:19:16.397Z,100709.06
2018-06-05T09:21:44.840Z,100717.91
2018-06-05T09:24:13.349Z,100707.14
2018-06-05T09:26:41.690Z,100709.36
2018-06-05T09:29:10.023Z,100712.78
2018-06-05T09:31:38.353Z,100706.25
2018-06-05T09:34:06.681Z,100711.52
2018-06-05T09:36:35.184Z,100717.69
2018-06-05T09:39:03.586Z,100724.42
2018-06-05T09:41:31.921Z,100717.50
2018-06-05T09:44:00.249Z,100721.34
2018-06-05T09:46:28.645Z,100722.72
2018-06-05T09:48:57.004Z,100723.70
2018-06-05T09:51:25.329Z,100723.08
2018-06-05T09:53:53.658Z,100722.11
2018-06-05T09:56:21.982Z,100715.11
2018-06-05T09:58:50.317Z,100721.92
2018-06-05T10:01:18.637Z,100733.67
2018-06-05T10:03:47.031Z,100729.40
2018-06-05T10:06:15.402Z,100723.42
2018-06-05T10:08:43.786Z,100721.45
2018-06-05T10:11:12.148Z,100732.47
2018-06-05T10:13:40.546Z,100727.48
2018-06-05T10:16:08.907Z,100737.88
2018-06-05T10:18:37.242Z,100731.38
2018-06-05T10:21:05.559Z,100734.98
2018-06-05T10:23:33.887Z,100731.19
2018-06-05T10:26:02.218Z,100730.23
2018-06-05T10:28:30.567Z,100735.61
2018-06-05T10:30:58.884Z,100738.39
2018-06-05T10:33:27.213Z,100736.87
2018-06-05T10:35:55.538Z,100734.86
2018-06-05T10:38:23.857Z,100738.86
2018-06-05T10:40:52.234Z,100741.33
2018-06-05T10:43:20.597Z,100742.17
2018-06-05T10:45:48.924Z,100742.89
2018-06-05T10:48:17.384Z,100740.83
2018-06-05T10:50:45.705Z,100742.07
2018-06-05T10:53:14.148Z,100736.66
2018-06-05T10:55:42.466Z,100741.81
2018-06-05T10:58:10.828Z,100741.58
2018-06-05T11:00:39.148Z,100738.86
2018-06-05T11:03:07.509Z,100743.38
2018-06-05T11:05:35.829Z,100734.72
2018-06-05T11:08:04.162Z,100742.07
2018-06-05T11:10:32.477Z,100743.36
2018-06-05T11:13:00.800Z,100748.85
2018-06-05T11:15:29.122Z,100739.77
2018-06-05T11:17:57.492Z,100742.98
2018-06-05T11:20:25.870Z,100747.03
2018-06-05T11:22:54.229Z,100739.64
2018-06-05T11:25:22.544Z,100747.11
2018-06-05T11:27:50.881Z,100746.28
2018-06-05T11:30:19.265Z,100744.40
2018-06-05T11:32:47.661Z,100749.78
2018-06-05T11:35:15.987Z,100748.98
2018-06-05T11:37:44.360Z,100748.98
2018-06-05T11:40:13.558Z,100754.48
2018-06-05T11:42:41.925Z,100749.76
2018-06-05T11:45:10.296Z,100743.36
2018-06-05T11:47:38.631Z,100743.09
2018-06-05T11:50:07.680Z,100747.22
2018-06-05T11:52:35.995Z,100745.57
2018-06-05T11:55:04.385Z,100742.86
2018-06-05T11:57:32.741Z,100750.30
2018-06-05T12:00:01.111Z,100749.39
2018-06-05T12:02:29.437Z,100752.17
2018-06-05T12:04:57.753Z,100753.80
2018-06-05T12:07:26.076Z,100755.47
2018-06-05T12:09:54.397Z,100750.80
2018-06-05T12:12:22.725Z,100754.70
2018-06-05T12:14:51.072Z,100753.48
2018-06-05T12:17:19.429Z,100752.31
2018-06-05T12:19:47.785Z,100743.96
2018-06-05T12:22:16.150Z,100751.14
2018-06-05T12:24:44.473Z,100729.66
2018-06-05T12:27:12.849Z,100732.89
2018-06-05T12:29:41.178Z,100739.00
2018-06-05T12:32:09.498Z,100740.39
2018-06-05T12:34:37.852Z,100736.34
2018-06-05T12:37:06.168Z,100732.03
2018-06-05T12:39:34.586Z,100729.95
2018-06-05T12:42:02.985Z,100731.90
2018-06-05T12:44:31.394Z,100723.94
2018-06-05T12:46:59.808Z,100720.13
2018-06-05T12:49:28.165Z,100720.84
2018-06-05T12:51:56.565Z,100721.46
2018-06-05T12:54:24.892Z,100724.41
2018-06-05T12:56:53.251Z,100725.70
2018-06-05T12:59:21.591Z,100713.98
2018-06-05T13:01:49.937Z,100711.84
2018-06-05T13:04:18.262Z,100703.72
2018-06-05T13:06:46.590Z,100694.48
2018-06-05T13:09:14.903Z,100703.56
2018-06-05T13:11:43.264Z,100704.09
2018-06-05T13:14:12.069Z,100697.31
2018-06-05T13:16:40.419Z,100700.80
2018-06-05T13:19:08.758Z,100695.27
2018-06-05T13:21:37.093Z,100696.84
2018-06-05T13:24:05.481Z,100694.87
2018-06-05T13:26:33.811Z,100697.15
2018-06-05T13:29:02.125Z,100694.08
2018-06-05T13:31:30.455Z,100692.77
2018-06-05T13:33:58.784Z,100694.94
2018-06-05T13:36:27.097Z,100684.02
2018-06-05T13:38:55.419Z,100684.27
2018-06-05T13:41:23.755Z,100682.33
2018-06-05T13:43:52.096Z,100683.73
2018-06-05T13:46:20.429Z,100686.94
2018-06-05T13:48:48.797Z,100681.83
2018-06-05T13:51:17.118Z,100681.88
2018-06-05T13:53:45.436Z,100680.25
2018-06-05T13:56:13.757Z,100679.62
2018-06-05T13:58:42.068Z,100674.27
2018-06-05T14:01:11.172Z,100673.77
2018-06-05T14:03:39.490Z,100671.27
2018-06-05T14:06:07.867Z,100674.33
2018-06-05T14:08:36.184Z,100669.69
2018-06-05T14:11:04.549Z,100662.14
2018-06-05T14:13:32.916Z,100666.11
2018-06-05T14:16:01.315Z,100670.89
2018-06-05T14:18:29.702Z,100655.97
2018-06-05T14:20:58.178Z,100661.13
2018-06-05T14:23:26.501Z,100663.04
2018-06-05T14:25:54.869Z,100658.41
2018-06-05T14:28:23.217Z,100658.66
2018-06-05T14:30:51.548Z,100658.93
2018-06-05T14:33:20.069Z,100647.27
2018-06-05T14:35:48.406Z,100656.86
2018-06-05T14:38:16.839Z,100657.50
2018-06-05T14:40:45.212Z,100661.66
2018-06-05T14:43:13.597Z,100656.88
2018-06-05T14:45:41.974Z,100652.72
2018-06-05T14:48:10.306Z,100651.56
2018-06-05T14:50:38.739Z,100655.78
2018-06-05T14:53:07.089Z,100655.70
2018-06-05T14:55:35.409Z,100653.21
2018-06-05T14:58:03.733Z,100642.12
2018-06-05T15:00:32.058Z,100647.20
2018-06-05T15:03:00.380Z,100651.05
2018-06-05T15:05:28.871Z,100652.67
2018-06-05T15:07:57.193Z,100646.48
2018-06-05T15:10:25.522Z,100648.46
2018-06-05T15:12:53.877Z,100643.36
2018-06-05T15:15:22.205Z,100643.41
2018-06-05T15:17:50.568Z,100639.34
2018-06-05T15:20:18.905Z,100628.44
2018-06-05T15:22:47.233Z,100635.75
2018-06-05T15:25:15.557Z,100636.41
2018-06-05T15:27:43.874Z,100631.80
2018-06-05T15:30:12.236Z,100629.31
2018-06-05T15:32:40.612Z,100633.41
2018-06-05T15:35:08.979Z,100626.06
2018-06-05T15:37:37.352Z,100628.77
2018-06-05T15:40:05.712Z,100624.48
2018-06-05T15:42:34.041Z,100623.40
2018-06-05T15:45:02.389Z,100626.73
2018-06-05T15:47:30.722Z,100626.17
2018-06-05T15:49:59.061Z,100623.08
2018-06-05T15:52:27.380Z,100618.24
2018-06-05T15:54:56.632Z,100614.67
2018-06-05T15:57:24.961Z,100610.34
2018-06-05T15:59:53.287Z,100615.69
2018-06-05T16:02:21.619Z,100611.02
2018-06-05T16:04:49.935Z,100611.81
2018-06-05T16:07:18.262Z,100613.28
2018-06-05T16:09:46.620Z,100611.90
2018-06-05T16:12:14.955Z,100612.45
2018-06-05T16:14:43.321Z,100615.19
2018-06-05T16:17:11.637Z,100625.73
2018-06-05T16:19:39.998Z,100622.11
2018-06-05T16:22:09.100Z,100622.38
2018-06-05T16:24:37.466Z,100620.33
2018-06-05T16:27:05.875Z,100625.08
2018-06-05T16:29:34.258Z,100619.30
2018-06-05T16:32:02.578Z,100623.88
2018-06-05T16:34:30.916Z,100624.69
2018-06-05T16:36:59.240Z,100616.36
2018-06-05T16:39:27.568Z,100624.27
2018-06-05T16:41:55.894Z,100627.44
2018-06-05T16:44:24.237Z,100622.22
2018-06-05T16:46:52.569Z,100618.56
2018-06-05T16:49:20.942Z,100618.23
2018-06-05T16:51:49.366Z,100620.43
2018-06-05T16:54:18.704Z,100616.33
2018-06-05T16:56:47.037Z,100617.55
2018-06-05T16:59:15.365Z,100614.05
2018-06-05T17:01:43.785Z,100617.76
2018-06-05T17:04:12.218Z,100617.76
2018-06-05T17:06:40.647Z,100618.33
2018-06-05T17:09:09.096Z,100618.95
2018-06-05T17:11:37.521Z,100620.28
2018-06-05T17:14:05.902Z,100621.02
2018-06-05T17:16:34.278Z,100620.52
2018-06-05T17:19:02.651Z,100623.37
2018-06-05T17:21:31.026Z,100623.27
2018-06-05T17:23:59.416Z,100624.44
2018-06-05T17:26:27.789Z,100623.45
2018-06-05T17:28:56.166Z,100632.10
2018-06-05T17:31:24.551Z,100634.09
2018-06-05T17:33:52.877Z,100630.55
2018-06-05T17:36:21.218Z,100627.09
2018-06-05T17:38:49.589Z,100631.40
2018-06-05T17:41:18.072Z,100638.22
2018-06-05T17:43:46.450Z,100637.34
2018-06-05T17:46:14.833Z,100631.37
2018-06-05T17:48:43.205Z,100641.48
2018-06-05T17:51:11.596Z,100640.61
2018-06-05T17:53:40.033Z,100635.07
2018-06-05T17:56:08.458Z,100642.75
2018-06-05T17:58:36.797Z,100652.08
2018-06-05T18:01:05.160Z,100644.81
2018-06-05T18:03:33.484Z,100652.69
2018-06-05T18:06:01.875Z,100646.27
2018-06-05T18:08:30.601Z,100646.92
2018-06-05T18:11:00.114Z,100648.14
2018-06-05T18:13:29.644Z,100660.75
2018-06-05T18:15:58.670Z,100662.07
2018-06-05T18:18:28.065Z,100662.25
2018-06-05T18:20:56.576Z,100663.73
2018-06-05T18:23:25.034Z,100661.65
2018-06-05T18:25:53.458Z,100667.02
2018-06-05T18:28:21.790Z,100665.32
2018-06-05T18:30:52.542Z,100670.63
2018-06-05T18:33:23.222Z,100668.41
2018-06-05T18:35:51.749Z,100671.76
2018-06-05T18:38:20.174Z,100671.19
2018-06-05T18:40:48.650Z,100682.01
2018-06-05T18:43:17.092Z,100686.80
2018-06-05T18:45:45.784Z,100697.30
2018-06-05T18:48:14.122Z,100688.72
2018-06-05T18:50:42.496Z,100688.91
2018-06-05T18:53:11.034Z,100699.27
2018-06-05T18:55:39.465Z,100696.20
2018-06-05T18:58:07.890Z,100706.74
2018-06-05T19:00:37.284Z,100713.59
2018-06-05T19:03:05.659Z,100714.42
2018-06-05T19:05:33.991Z,100721.93
2018-06-05T19:08:02.362Z,100725.84
2018-06-05T19:10:31.314Z,100729.71
2018-06-05T19:12:59.650Z,100739.58
2018-06-05T19:15:28.156Z,100742.11
2018-06-05T19:17:56.605Z,100740.86
2018-06-05T19:20:25.035Z,100751.42
2018-06-05T19:22:53.620Z,100753.42
2018-06-05T19:25:21.959Z,100763.59
2018-06-05T19:27:50.446Z,100761.59
2018-06-05T19:30:18.808Z,100771.56
2018-06-05T19:32:47.226Z,100781.53
2018-06-05T19:35:16.529Z,100781.23
2018-06-05T19:37:44.922Z,100791.33
2018-06-05T19:40:13.425Z,100795.33
2018-06-05T19:42:41.764Z,100794.14
2018-06-05T19:45:10.250Z,100797.97
2018-06-05T19:47:38.654Z,100801.77
2018-06-05T19:50:07.128Z,100810.55
2018-06-05T19:52:35.600Z,100808.64
2018-06-05T19:55:04.002Z,100815.09
2018-06-05T19:57:32.458Z,100819.20
2018-06-05T20:00:00.848Z,100817.44
2018-06-05T20:02:29.213Z,100821.02
2018-06-05T20:04:57.633Z,100823.33
2018-06-05T20:07:25.968Z,100822.27
2018-06-05T20:09:54.374Z,100826.90
2018-06-05T20:12:22.737Z,100827.20
2018-06-05T20:14:51.216Z,100828.14
2018-06-05T20:17:19.630Z,100831.99
2018-06-05T20:19:47.997Z,100837.28
2018-06-05T20:22:16.430Z,100835.75
2018-06-05T20:24:44.899Z,100844.92
2018-06-05T20:27:13.249Z,100845.48
2018-06-05T20:29:41.617Z,100844.51
2018-06-05T20:32:09.998Z,100847.94
2018-06-05T20:34:38.400Z,100851.64
2018-06-05T20:37:06.762Z,100851.67
2018-06-05T20:39:35.137Z,100860.76
2018-06-05T20:42:03.604Z,100860.73
2018-06-05T20:44:31.930Z,100856.77
2018-06-05T20:47:00.291Z,100861.48
2018-06-05T20:49:28.667Z,100871.14
2018-06-05T20:51:57.047Z,100872.43
2018-06-05T20:54:25.376Z,100870.53
2018-06-05T20:56:53.802Z,100874.64
2018-06-05T20:59:22.181Z,100881.66
2018-06-05T21:01:50.589Z,100881.53
2018-06-05T21:04:18.982Z,100886.27
2018-06-05T21:06:47.349Z,100889.50
2018-06-05T21:09:15.691Z,100888.41
2018-06-05T21:11:44.048Z,100882.64
2018-06-05T21:14:12.910Z,100882.23
2018-06-05T21:16:41.324Z,100889.05
2018-06-05T21:19:09.779Z,100886.45
2018-06-05T21:21:38.320Z,100898.79
2018-06-05T21:24:06.703Z,100898.84
2018-06-05T21:26:35.108Z,100902.07
2018-06-05T21:29:03.462Z,100904.19
2018-06-05T21:31:31.790Z,100911.11
2018-06-05T21:34:00.214Z,100916.38
2018-06-05T21:36:28.544Z,100916.52
2018-06-05T21:38:56.985Z,100918.32
2018-06-05T21:41:25.357Z,100929.42
2018-06-05T21:43:53.730Z,100916.73
2018-06-05T21:46:22.429Z,100922.34
2018-06-05T21:48:50.799Z,100923.45
2018-06-05T21:51:19.130Z,100919.75
2018-06-05T21:53:47.612Z,100927.08
2018-06-05T21:56:15.985Z,100924.75
2018-06-05T21:58:44.317Z,100928.28
2018-06-05T22:01:12.706Z,100926.13
2018-06-05T22:03:41.033Z,100937.16
2018-06-05T22:06:09.429Z,100941.42
2018-06-05T22:08:37.782Z,100949.69
2018-06-05T22:11:06.158Z,100953.90
2018-06-05T22:13:34.486Z,100955.69
2018-06-05T22:16:02.853Z,100950.05
2018-06-05T22:18:31.236Z,100953.98
2018-06-05T22:20:59.560Z,100957.77
2018-06-05T22:23:27.922Z,100957.59
2018-06-05T22:25:56.237Z,100961.55
2018-06-05T22:28:24.608Z,100964.84
2018-06-05T22:30:52.928Z,100963.92
2018-06-05T22:33:21.290Z,100962.96
2018-06-05T22:35:49.701Z,100963.76
2018-06-05T22:38:18.015Z,100967.70
2018-06-05T22:40:46.326Z,100970.41
2018-06-05T22:43:14.689Z,100974.11
2018-06-05T22:45:43.020Z,100973.80
2018-06-05T22:48:11.409Z,100971.71
2018-06-05T22:50:39.842Z,100975.13
2018-06-05T22:53:08.165Z,100973.63
2018-06-05T22:55:36.554Z,100974.02
2018-06-05T22:58:04.921Z,100976.92
2018-06-05T23:00:34.075Z,100977.39
2018-06-05T23:03:02.510Z,100981.38
2018-06-05T23:05:30.833Z,100975.25
2018-06-05T23:07:59.162Z,100981.71
2018-06-05T23:10:27.477Z,100976.98
2018-06-05T23:12:55.793Z,100968.80
2018-06-05T23:15:24.120Z,100977.54
2018-06-05T23:17:52.470Z,100976.61
2018-06-05T23:20:20.905Z,100978.55
2018-06-05T23:22:49.230Z,100971.83
2018-06-05T23:25:17.613Z,100974.47
2018-06-05T23:27:45.942Z,100979.40
2018-06-05T23:30:14.249Z,100978.31
2018-06-05T23:32:42.573Z,100982.63
2018-06-05T23:35:10.906Z,100986.34
2018-06-05T23:37:39.229Z,100980.05
2018-06-05T23:40:07.558Z,100982.69
2018-06-05T23:42:35.938Z,100980.80
2018-06-05T23:45:04.350Z,100985.41
2018-06-05T23:47:32.679Z,100993.20
2018-06-05T23:50:01.023Z,100989.59
2018-06-05T23:52:29.336Z,100996.40
2018-06-05T23:54:57.741Z,100992.36
2018-06-05T23:57:26.068Z,100991.75
2018-06-05T23:59:54.386Z,100990.84
